createdAt,value
2023-05-01T00:00:16.383Z,36.64
2023-05-01T00:01:16.380Z,35.11
2023-05-01T00:02:16.411Z,35.72
2023-05-01T00:03:16.544Z,36.06
2023-05-01T00:04:16.687Z,34.58
2023-05-01T00:05:16.512Z,36.01
2023-05-01T00:06:16.574Z,33.82
2023-05-01T00:07:16.595Z,35.29
2023-05-01T00:08:16.636Z,35.52
2023-05-01T00:09:16.681Z,34.18
2023-05-01T00:10:16.671Z,34.94
2023-05-01T00:11:16.735Z,35.82
2023-05-01T00:12:16.752Z,32.50
2023-05-01T00:13:16.802Z,33.73
2023-05-01T00:14:16.846Z,34.27
2023-05-01T00:15:16.881Z,34.82
2023-05-01T00:16:16.999Z,34.05
2023-05-01T00:17:16.898Z,34.54
2023-05-01T00:18:16.982Z,32.73
2023-05-01T00:19:16.875Z,32.44
2023-05-01T00:20:16.892Z,36.84
2023-05-01T00:21:16.899Z,33.80
2023-05-01T00:22:16.906Z,32.90
2023-05-01T00:23:16.954Z,33.94
2023-05-01T00:24:16.891Z,32.87
2023-05-01T00:25:16.896Z,32.43
2023-05-01T00:26:16.888Z,32.71
2023-05-01T00:27:16.865Z,34.57
2023-05-01T00:28:16.866Z,34.35
2023-05-01T00:29:16.894Z,33.37
2023-05-01T00:30:16.922Z,33.09
2023-05-01T00:31:17.017Z,33.47
2023-05-01T00:32:17.114Z,33.60
2023-05-01T00:33:17.068Z,32.61
2023-05-01T00:34:17.068Z,33.33
2023-05-01T00:35:17.101Z,37.23
2023-05-01T00:36:17.130Z,34.12
2023-05-01T00:37:17.154Z,35.03
2023-05-01T00:38:17.202Z,31.59
2023-05-01T00:39:17.204Z,32.91
2023-05-01T00:40:17.264Z,34.13
2023-05-01T00:41:17.283Z,32.76
2023-05-01T00:42:17.303Z,32.18
2023-05-01T00:43:17.381Z,29.78
2023-05-01T00:44:17.375Z,31.35
2023-05-01T00:45:17.426Z,30.90
2023-05-01T00:46:17.547Z,31.75
2023-05-01T00:47:17.496Z,33.56
2023-05-01T00:48:17.514Z,34.83
2023-05-01T00:49:17.577Z,28.62
2023-05-01T00:50:17.622Z,31.87
2023-05-01T00:51:17.649Z,31.37
2023-05-01T00:52:17.667Z,31.64
2023-05-01T00:53:17.651Z,29.52
2023-05-01T00:54:17.685Z,30.77
2023-05-01T00:55:17.677Z,25.50
2023-05-01T00:56:17.728Z,32.17
2023-05-01T00:57:17.712Z,30.17
2023-05-01T00:58:17.701Z,33.69
2023-05-01T00:59:17.707Z,30.29
2023-05-01T01:00:17.706Z,30.47
2023-05-01T01:01:17.796Z,29.60
2023-05-01T01:02:17.777Z,32.24
2023-05-01T01:03:17.814Z,32.74
2023-05-01T01:04:17.933Z,34.31
2023-05-01T01:05:17.862Z,34.59
2023-05-01T01:06:17.915Z,30.02
2023-05-01T01:07:17.912Z,33.36
2023-05-01T01:08:17.954Z,33.25
2023-05-01T01:09:17.984Z,34.38
2023-05-01T01:10:18.005Z,33.00
2023-05-01T01:11:18.074Z,33.10
2023-05-01T01:12:18.099Z,31.45
2023-05-01T01:13:18.154Z,34.95
2023-05-01T01:14:18.174Z,35.55
2023-05-01T01:15:18.208Z,34.95
2023-05-01T01:16:18.308Z,32.97
2023-05-01T01:17:18.266Z,32.87
2023-05-01T01:18:18.304Z,34.77
2023-05-01T01:19:18.329Z,33.04
2023-05-01T01:20:18.359Z,33.46
2023-05-01T01:21:18.389Z,38.16
2023-05-01T01:22:18.405Z,34.19
2023-05-01T01:23:18.440Z,34.15
2023-05-01T01:24:18.459Z,33.56
2023-05-01T01:25:18.526Z,36.63
2023-05-01T01:26:18.578Z,35.77
2023-05-01T01:27:18.600Z,35.15
2023-05-01T01:28:18.683Z,36.39
2023-05-01T01:29:18.847Z,33.32
2023-05-01T01:30:18.817Z,33.35
2023-05-01T01:31:18.921Z,33.83
2023-05-01T01:32:18.932Z,35.33
2023-05-01T01:33:18.976Z,34.11
2023-05-01T01:34:18.992Z,33.51
2023-05-01T01:35:18.983Z,33.27
2023-05-01T01:36:19.041Z,33.53
2023-05-01T01:37:19.104Z,32.65
2023-05-01T01:38:19.150Z,35.13
2023-05-01T01:39:19.145Z,36.58
2023-05-01T01:40:19.169Z,31.60
2023-05-01T01:41:19.144Z,34.27
2023-05-01T01:42:19.165Z,34.52
2023-05-01T01:43:19.194Z,31.70
2023-05-01T01:44:19.184Z,32.94
2023-05-01T01:45:19.194Z,31.79
2023-05-01T01:46:19.218Z,32.56
2023-05-01T01:47:19.192Z,31.90
2023-05-01T01:48:19.262Z,34.99
2023-05-01T01:49:20.836Z,33.08
2023-05-01T01:50:19.362Z,34.68
2023-05-01T01:51:19.438Z,35.13
2023-05-01T01:52:19.464Z,34.72
2023-05-01T01:53:19.504Z,33.40
2023-05-01T01:54:19.567Z,34.33
2023-05-01T01:55:19.610Z,31.84
2023-05-01T01:56:19.698Z,30.93
2023-05-01T01:57:19.674Z,31.32
2023-05-01T01:58:19.698Z,30.82
2023-05-01T01:59:19.732Z,31.26
2023-05-01T02:00:19.772Z,31.15
2023-05-01T02:01:19.866Z,34.78
2023-05-01T02:02:19.865Z,29.46
2023-05-01T02:03:19.943Z,30.26
2023-05-01T02:04:20.011Z,34.23
2023-05-01T02:05:19.966Z,33.18
2023-05-01T02:06:19.992Z,31.68
2023-05-01T02:07:19.954Z,33.09
2023-05-01T02:08:20.097Z,33.55
2023-05-01T02:09:19.962Z,32.68
2023-05-01T02:10:19.967Z,34.19
2023-05-01T02:11:19.963Z,33.81
2023-05-01T02:12:19.955Z,31.67
2023-05-01T02:13:19.970Z,30.33
2023-05-01T02:14:19.960Z,30.85
2023-05-01T02:15:19.952Z,29.59
2023-05-01T02:16:20.013Z,29.55
2023-05-01T02:17:20.004Z,30.19
2023-05-01T02:18:19.991Z,31.70
2023-05-01T02:19:19.969Z,32.60
2023-05-01T02:20:19.959Z,29.63
2023-05-01T02:21:19.949Z,33.82
2023-05-01T02:22:19.963Z,31.11
2023-05-01T02:23:19.966Z,30.54
2023-05-01T02:24:19.945Z,32.12
2023-05-01T02:25:20.095Z,31.49
2023-05-01T02:26:19.945Z,29.31
2023-05-01T02:27:19.972Z,27.97
2023-05-01T02:28:19.977Z,27.75
2023-05-01T02:29:20.055Z,32.34
2023-05-01T02:30:20.059Z,29.13
2023-05-01T02:31:20.113Z,32.02
2023-05-01T02:32:20.212Z,29.38
2023-05-01T02:33:20.189Z,31.48
2023-05-01T02:34:20.206Z,30.70
2023-05-01T02:35:20.254Z,28.89
2023-05-01T02:36:20.329Z,29.02
2023-05-01T02:37:20.346Z,29.76
2023-05-01T02:38:20.362Z,26.91
2023-05-01T02:39:20.438Z,31.82
2023-05-01T02:40:20.476Z,32.30
2023-05-01T02:41:20.489Z,30.33
2023-05-01T02:42:20.550Z,32.60
2023-05-01T02:43:20.578Z,32.91
2023-05-01T02:44:20.667Z,32.13
2023-05-01T02:45:20.677Z,28.59
2023-05-01T02:46:20.836Z,29.75
2023-05-01T02:47:20.766Z,30.94
2023-05-01T02:48:20.772Z,30.38
2023-05-01T02:49:20.765Z,26.92
2023-05-01T02:50:20.743Z,29.48
2023-05-01T02:51:20.749Z,31.94
2023-05-01T02:52:20.780Z,31.17
2023-05-01T02:53:20.722Z,28.74
2023-05-01T02:54:20.745Z,29.85
2023-05-01T02:55:20.749Z,28.94
2023-05-01T02:56:20.733Z,28.51
2023-05-01T02:57:20.754Z,33.21
2023-05-01T02:58:20.787Z,30.70
2023-05-01T02:59:20.741Z,29.26
2023-05-01T03:00:20.764Z,30.76
2023-05-01T03:01:20.813Z,31.45
2023-05-01T03:02:20.716Z,29.15
2023-05-01T03:03:20.840Z,28.60
2023-05-01T03:04:20.810Z,30.26
2023-05-01T03:05:20.720Z,33.30
2023-05-01T03:06:20.763Z,26.84
2023-05-01T03:07:20.718Z,28.81
2023-05-01T03:08:20.695Z,28.15
2023-05-01T03:09:20.716Z,29.53
2023-05-01T03:10:20.708Z,28.65
2023-05-01T03:11:20.717Z,30.35
2023-05-01T03:12:20.718Z,28.89
2023-05-01T03:13:20.683Z,26.92
2023-05-01T03:14:20.674Z,30.79
2023-05-01T03:15:20.700Z,29.71
2023-05-01T03:16:20.676Z,27.85
2023-05-01T03:17:20.682Z,31.83
2023-05-01T03:18:20.671Z,28.19
2023-05-01T03:19:20.684Z,27.25
2023-05-01T03:20:20.679Z,25.66
2023-05-01T03:21:20.672Z,30.15
2023-05-01T03:22:20.687Z,28.53
2023-05-01T03:23:20.744Z,31.47
2023-05-01T03:24:20.806Z,31.90
2023-05-01T03:25:20.868Z,27.28
2023-05-01T03:26:20.901Z,31.40
2023-05-01T03:27:20.935Z,29.37
2023-05-01T03:28:21.022Z,31.69
2023-05-01T03:29:21.011Z,27.83
2023-05-01T03:30:21.040Z,31.11
2023-05-01T03:31:21.043Z,32.21
2023-05-01T03:32:21.101Z,29.34
2023-05-01T03:33:21.062Z,30.37
2023-05-01T03:34:21.120Z,30.74
2023-05-01T03:35:21.155Z,31.15
2023-05-01T03:36:21.206Z,33.24
2023-05-01T03:37:21.235Z,30.08
2023-05-01T03:38:21.241Z,31.72
2023-05-01T03:39:21.213Z,30.31
2023-05-01T03:40:21.223Z,29.47
2023-05-01T03:41:21.239Z,30.30
2023-05-01T03:42:21.210Z,32.42
2023-05-01T03:43:21.230Z,28.19
2023-05-01T03:44:21.220Z,30.17
2023-05-01T03:45:21.246Z,30.16
2023-05-01T03:46:21.325Z,32.59
2023-05-01T03:47:21.297Z,32.66
2023-05-01T03:48:21.337Z,31.71
2023-05-01T03:49:21.395Z,29.71
2023-05-01T03:50:21.439Z,31.51
2023-05-01T03:51:21.475Z,30.40
2023-05-01T03:52:21.541Z,28.63
2023-05-01T03:53:21.585Z,34.09
2023-05-01T03:54:21.645Z,29.78
2023-05-01T03:55:21.665Z,28.85
2023-05-01T03:56:21.690Z,29.58
2023-05-01T03:57:21.710Z,28.91
2023-05-01T03:58:21.748Z,32.59
2023-05-01T03:59:21.722Z,31.81
2023-05-01T04:00:21.731Z,31.39
2023-05-01T04:01:21.725Z,30.16
2023-05-01T04:02:21.911Z,29.88
2023-05-01T04:03:21.780Z,28.85
2023-05-01T04:04:21.804Z,29.68
2023-05-01T04:05:21.753Z,28.71
2023-05-01T04:06:21.812Z,31.16
2023-05-01T04:07:21.757Z,30.81
2023-05-01T04:08:21.747Z,30.03
2023-05-01T04:09:21.736Z,29.67
2023-05-01T04:10:21.766Z,31.65
2023-05-01T04:11:21.790Z,32.70
2023-05-01T04:12:21.861Z,28.10
2023-05-01T04:13:21.893Z,31.21
2023-05-01T04:14:21.937Z,32.72
2023-05-01T04:15:22.001Z,31.57
2023-05-01T04:16:22.067Z,30.49
2023-05-01T04:17:21.981Z,28.96
2023-05-01T04:18:22.043Z,29.38
2023-05-01T04:19:22.060Z,29.37
2023-05-01T04:20:22.064Z,31.65
2023-05-01T04:21:22.050Z,31.08
2023-05-01T04:22:22.036Z,30.55
2023-05-01T04:23:23.141Z,31.70
2023-05-01T04:24:22.053Z,31.59
2023-05-01T04:25:22.080Z,29.77
2023-05-01T04:26:22.047Z,30.42
2023-05-01T04:27:22.084Z,30.79
2023-05-01T04:28:22.082Z,30.58
2023-05-01T04:29:22.134Z,28.48
2023-05-01T04:30:22.183Z,30.17
2023-05-01T04:31:22.281Z,31.36
2023-05-01T04:32:22.352Z,30.90
2023-05-01T04:33:22.334Z,28.48
2023-05-01T04:34:22.407Z,30.84
2023-05-01T04:35:22.437Z,32.16
2023-05-01T04:36:22.508Z,28.00
2023-05-01T04:37:22.543Z,26.47
2023-05-01T04:38:22.566Z,30.90
2023-05-01T04:39:22.643Z,29.96
2023-05-01T04:40:22.699Z,29.18
2023-05-01T04:41:22.758Z,29.88
2023-05-01T04:42:22.811Z,29.57
2023-05-01T04:43:22.837Z,30.67
2023-05-01T04:44:22.909Z,31.02
2023-05-01T04:45:22.960Z,30.69
2023-05-01T04:46:23.041Z,31.05
2023-05-01T04:47:23.046Z,33.16
2023-05-01T04:48:23.249Z,25.80
2023-05-01T04:49:23.159Z,29.84
2023-05-01T04:50:23.198Z,33.33
2023-05-01T04:51:23.177Z,27.82
2023-05-01T04:52:23.176Z,29.78
2023-05-01T04:53:23.185Z,29.30
2023-05-01T04:54:23.197Z,30.44
2023-05-01T04:55:23.206Z,29.38
2023-05-01T04:56:23.217Z,28.38
2023-05-01T04:57:23.291Z,26.85
2023-05-01T04:58:23.307Z,29.42
2023-05-01T04:59:23.387Z,30.55
2023-05-01T05:00:30.408Z,32.03
2023-05-01T05:01:23.532Z,32.40
2023-05-01T05:02:23.537Z,33.00
2023-05-01T05:03:23.478Z,32.50
2023-05-01T05:04:23.409Z,32.53
2023-05-01T05:05:23.409Z,30.15
2023-05-01T05:06:23.432Z,33.24
2023-05-01T05:07:23.396Z,29.99
2023-05-01T05:08:23.381Z,30.15
2023-05-01T05:09:23.367Z,30.15
2023-05-01T05:10:23.384Z,28.22
2023-05-01T05:11:23.371Z,31.57
2023-05-01T05:12:23.364Z,30.84
2023-05-01T05:13:23.363Z,30.18
2023-05-01T05:14:23.348Z,29.13
2023-05-01T05:15:23.360Z,28.57
2023-05-01T05:16:23.381Z,28.93
2023-05-01T05:17:23.326Z,31.18
2023-05-01T05:18:23.385Z,28.42
2023-05-01T05:19:23.367Z,29.26
2023-05-01T05:20:23.297Z,28.65
2023-05-01T05:21:23.317Z,28.50
2023-05-01T05:22:23.295Z,29.73
2023-05-01T05:23:23.315Z,30.80
2023-05-01T05:24:23.273Z,27.70
2023-05-01T05:25:23.359Z,29.13
2023-05-01T05:26:23.418Z,30.40
2023-05-01T05:27:23.479Z,29.17
2023-05-01T05:28:23.485Z,27.83
2023-05-01T05:29:23.567Z,27.65
2023-05-01T05:30:23.617Z,25.11
2023-05-01T05:31:23.711Z,28.72
2023-05-01T05:32:23.815Z,30.04
2023-05-01T05:33:23.784Z,29.72
2023-05-01T05:34:23.833Z,30.88
2023-05-01T05:35:23.858Z,29.55
2023-05-01T05:36:23.878Z,29.52
2023-05-01T05:37:23.862Z,29.90
2023-05-01T05:38:23.849Z,28.66
2023-05-01T05:39:23.882Z,30.74
2023-05-01T05:40:23.884Z,27.99
2023-05-01T05:41:23.907Z,29.58
2023-05-01T05:42:23.895Z,29.40
2023-05-01T05:44:23.933Z,26.96
2023-05-01T05:45:30.925Z,31.05
2023-05-01T05:46:24.015Z,31.43
2023-05-01T05:47:23.916Z,31.86
2023-05-01T05:48:23.974Z,32.37
2023-05-01T05:49:23.948Z,30.51
2023-05-01T05:50:23.944Z,32.31
2023-05-01T05:51:23.893Z,29.75
2023-05-01T05:52:23.912Z,28.17
2023-05-01T05:53:25.891Z,30.56
2023-05-01T05:54:23.906Z,31.88
2023-05-01T05:55:23.871Z,29.94
2023-05-01T05:56:23.903Z,29.33
2023-05-01T05:57:23.964Z,29.15
2023-05-01T05:58:24.002Z,30.14
2023-05-01T05:59:24.094Z,29.07
2023-05-01T06:00:24.125Z,32.34
2023-05-01T06:01:24.222Z,30.43
2023-05-01T06:02:24.397Z,29.44
2023-05-01T06:03:24.470Z,28.70
2023-05-01T06:04:24.368Z,28.02
2023-05-01T06:05:24.457Z,29.58
2023-05-01T06:06:24.539Z,31.76
2023-05-01T06:07:24.548Z,27.76
2023-05-01T06:08:24.657Z,28.91
2023-05-01T06:09:24.683Z,30.04
2023-05-01T06:10:24.729Z,25.32
2023-05-01T06:11:24.794Z,28.39
2023-05-01T06:12:24.863Z,29.25
2023-05-01T06:13:24.920Z,29.61
2023-05-01T06:14:25.004Z,26.74
2023-05-01T06:15:25.044Z,26.43
2023-05-01T06:16:25.139Z,30.01
2023-05-01T06:17:25.210Z,27.34
2023-05-01T06:18:25.261Z,28.83
2023-05-01T06:19:25.333Z,29.18
2023-05-01T06:20:25.374Z,28.03
2023-05-01T06:21:25.443Z,29.64
2023-05-01T06:22:25.461Z,28.67
2023-05-01T06:23:25.563Z,28.52
2023-05-01T06:24:25.607Z,27.70
2023-05-01T06:25:25.632Z,28.43
2023-05-01T06:26:25.698Z,29.65
2023-05-01T06:27:25.761Z,29.18
2023-05-01T06:28:25.843Z,29.06
2023-05-01T06:29:25.859Z,25.41
2023-05-01T06:30:25.929Z,29.68
2023-05-01T06:31:25.987Z,27.35
2023-05-01T06:32:25.985Z,29.59
2023-05-01T06:33:25.970Z,30.11
2023-05-01T06:34:25.976Z,28.00
2023-05-01T06:35:26.038Z,28.67
2023-05-01T06:36:26.038Z,29.80
2023-05-01T06:37:26.007Z,30.66
2023-05-01T06:38:27.083Z,27.79
2023-05-01T06:39:26.070Z,29.22
2023-05-01T06:40:26.043Z,28.68
2023-05-01T06:41:26.092Z,31.81
2023-05-01T06:42:26.097Z,31.25
2023-05-01T06:43:26.101Z,29.32
2023-05-01T06:44:26.131Z,27.96
2023-05-01T06:45:26.131Z,29.46
2023-05-01T06:46:26.189Z,28.49
2023-05-01T06:47:26.184Z,29.93
2023-05-01T06:48:26.178Z,29.74
2023-05-01T06:49:26.157Z,27.57
2023-05-01T06:50:26.177Z,29.93
2023-05-01T06:51:26.150Z,29.50
2023-05-01T06:52:26.200Z,32.62
2023-05-01T06:53:26.197Z,29.14
2023-05-01T06:54:26.207Z,29.59
2023-05-01T06:55:26.220Z,30.43
2023-05-01T06:56:26.224Z,28.71
2023-05-01T06:57:26.237Z,30.66
2023-05-01T06:58:26.247Z,27.59
2023-05-01T06:59:26.247Z,28.45
2023-05-01T07:00:26.340Z,29.22
2023-05-01T07:01:26.409Z,28.69
2023-05-01T07:02:26.345Z,29.31
2023-05-01T07:03:26.392Z,27.88
2023-05-01T07:04:26.324Z,31.52
2023-05-01T07:05:26.331Z,29.83
2023-05-01T07:06:26.426Z,29.96
2023-05-01T07:07:26.428Z,29.96
2023-05-01T07:08:26.451Z,30.74
2023-05-01T07:09:26.517Z,29.39
2023-05-01T07:10:26.580Z,29.85
2023-05-01T07:11:26.649Z,32.66
2023-05-01T07:12:26.692Z,31.12
2023-05-01T07:13:26.775Z,31.58
2023-05-01T07:14:26.761Z,31.29
2023-05-01T07:15:26.768Z,32.29
2023-05-01T07:16:26.799Z,30.20
2023-05-01T07:17:26.804Z,30.15
2023-05-01T07:18:26.786Z,28.29
2023-05-01T07:19:26.800Z,30.53
2023-05-01T07:20:26.823Z,30.76
2023-05-01T07:21:26.875Z,29.83
2023-05-01T07:22:26.882Z,31.12
2023-05-01T07:23:26.974Z,30.22
2023-05-01T07:24:26.943Z,30.45
2023-05-01T07:25:26.950Z,31.85
2023-05-01T07:26:27.011Z,31.15
2023-05-01T07:27:26.979Z,30.95
2023-05-01T07:28:26.991Z,32.63
2023-05-01T07:29:26.981Z,32.72
2023-05-01T07:30:26.998Z,29.46
2023-05-01T07:31:27.136Z,29.93
2023-05-01T07:32:27.073Z,32.70
2023-05-01T07:33:27.058Z,27.81
2023-05-01T07:34:27.144Z,32.00
2023-05-01T07:35:27.183Z,30.09
2023-05-01T07:36:27.294Z,30.28
2023-05-01T07:37:27.307Z,32.31
2023-05-01T07:38:27.359Z,30.91
2023-05-01T07:39:27.376Z,31.68
2023-05-01T07:40:27.467Z,31.91
2023-05-01T07:41:27.503Z,29.11
2023-05-01T07:42:27.587Z,30.96
2023-05-01T07:43:27.626Z,31.05
2023-05-01T07:44:27.648Z,30.61
2023-05-01T07:45:27.720Z,31.13
2023-05-01T07:46:27.898Z,31.32
2023-05-01T07:47:28.053Z,29.29
2023-05-01T07:48:27.865Z,30.05
2023-05-01T07:49:27.917Z,30.46
2023-05-01T07:50:27.996Z,31.07
2023-05-01T07:51:28.034Z,31.94
2023-05-01T07:52:28.078Z,32.37
2023-05-01T07:53:28.114Z,29.52
2023-05-01T07:54:28.184Z,32.48
2023-05-01T07:55:28.244Z,30.23
2023-05-01T07:56:28.348Z,32.47
2023-05-01T07:57:28.333Z,31.61
2023-05-01T07:58:28.383Z,31.32
2023-05-01T07:59:28.433Z,34.12
2023-05-01T08:00:28.514Z,31.98
2023-05-01T08:01:28.559Z,32.91
2023-05-01T08:02:28.727Z,31.99
2023-05-01T08:03:28.827Z,29.88
2023-05-01T08:04:28.803Z,31.61
2023-05-01T08:05:28.782Z,32.97
2023-05-01T08:06:28.836Z,32.13
2023-05-01T08:07:28.860Z,33.93
2023-05-01T08:08:28.910Z,37.61
2023-05-01T08:09:28.988Z,32.23
2023-05-01T08:10:29.038Z,33.03
2023-05-01T08:11:29.105Z,34.27
2023-05-01T08:12:29.147Z,32.97
2023-05-01T08:13:29.192Z,33.87
2023-05-01T08:14:29.245Z,32.19
2023-05-01T08:15:29.250Z,32.97
2023-05-01T08:16:29.414Z,34.48
2023-05-01T08:17:29.422Z,32.04
2023-05-01T08:18:29.415Z,34.92
2023-05-01T08:19:29.491Z,33.42
2023-05-01T08:20:29.507Z,32.82
2023-05-01T08:21:29.572Z,33.13
2023-05-01T08:22:29.618Z,31.20
2023-05-01T08:23:29.706Z,32.45
2023-05-01T08:24:29.717Z,33.90
2023-05-01T08:25:29.782Z,33.78
2023-05-01T08:26:29.831Z,33.38
2023-05-01T08:27:29.901Z,31.10
2023-05-01T08:28:29.943Z,33.81
2023-05-01T08:29:29.944Z,33.09
2023-05-01T08:30:30.021Z,36.35
2023-05-01T08:31:30.102Z,34.92
2023-05-01T08:32:30.150Z,33.81
2023-05-01T08:33:30.170Z,32.02
2023-05-01T08:34:30.199Z,32.90
2023-05-01T08:35:30.343Z,33.23
2023-05-01T08:36:30.286Z,34.51
2023-05-01T08:37:30.341Z,34.51
2023-05-01T08:38:30.481Z,31.89
2023-05-01T08:39:30.424Z,30.15
2023-05-01T08:40:30.499Z,33.32
2023-05-01T08:41:30.551Z,31.81
2023-05-01T08:42:32.272Z,34.14
2023-05-01T08:43:30.635Z,32.14
2023-05-01T08:44:30.682Z,34.64
2023-05-01T08:45:30.714Z,32.93
2023-05-01T08:46:30.791Z,34.18
2023-05-01T08:47:30.920Z,35.34
2023-05-01T08:48:30.864Z,34.70
2023-05-01T08:49:30.894Z,33.36
2023-05-01T08:50:30.935Z,33.20
2023-05-01T08:51:31.091Z,34.97
2023-05-01T08:52:31.074Z,32.66
2023-05-01T08:53:31.104Z,33.69
2023-05-01T08:54:31.171Z,35.52
2023-05-01T08:55:31.213Z,34.76
2023-05-01T08:56:31.323Z,34.18
2023-05-01T08:57:31.341Z,32.63
2023-05-01T08:58:31.351Z,33.41
2023-05-01T08:59:31.344Z,35.02
2023-05-01T09:00:31.350Z,30.85
2023-05-01T09:01:31.431Z,32.16
2023-05-01T09:02:31.455Z,32.32
2023-05-01T09:03:31.550Z,36.30
2023-05-01T09:04:31.524Z,31.36
2023-05-01T09:05:31.579Z,33.98
2023-05-01T09:06:31.659Z,35.41
2023-05-01T09:07:31.674Z,33.29
2023-05-01T09:08:31.723Z,34.21
2023-05-01T09:09:31.757Z,33.42
2023-05-01T09:10:33.037Z,36.96
2023-05-01T09:11:31.834Z,35.00
2023-05-01T09:12:31.908Z,32.05
2023-05-01T09:13:31.918Z,31.86
2023-05-01T09:14:31.950Z,34.05
2023-05-01T09:15:31.994Z,34.26
2023-05-01T09:16:32.139Z,34.92
2023-05-01T09:17:32.138Z,34.13
2023-05-01T09:18:32.123Z,31.66
2023-05-01T09:19:32.133Z,34.09
2023-05-01T09:20:32.168Z,33.67
2023-05-01T09:21:32.214Z,33.91
2023-05-01T09:22:32.246Z,32.86
2023-05-01T09:23:32.301Z,33.94
2023-05-01T09:24:32.354Z,34.55
2023-05-01T09:25:32.401Z,31.38
2023-05-01T09:26:32.428Z,35.38
2023-05-01T09:27:32.482Z,31.95
2023-05-01T09:28:32.510Z,34.82
2023-05-01T09:29:32.539Z,35.64
2023-05-01T09:30:32.582Z,33.81
2023-05-01T09:31:32.686Z,32.92
2023-05-01T09:32:32.596Z,31.15
2023-05-01T09:33:32.571Z,32.20
2023-05-01T09:34:32.562Z,34.90
2023-05-01T09:35:32.566Z,34.97
2023-05-01T09:36:32.572Z,31.93
2023-05-01T09:37:32.627Z,35.03
2023-05-01T09:38:32.592Z,35.31
2023-05-01T09:39:32.665Z,35.03
2023-05-01T09:40:32.657Z,34.65
2023-05-01T09:41:32.688Z,33.00
2023-05-01T09:42:32.708Z,34.58
2023-05-01T09:43:32.745Z,32.42
2023-05-01T09:44:32.774Z,36.81
2023-05-01T09:45:32.843Z,31.46
2023-05-01T09:46:32.899Z,32.12
2023-05-01T09:47:32.916Z,31.51
2023-05-01T09:48:35.355Z,35.50
2023-05-01T09:49:32.928Z,37.34
2023-05-01T09:50:32.957Z,34.34
2023-05-01T09:51:32.895Z,33.47
2023-05-01T09:52:32.922Z,37.24
2023-05-01T09:53:32.883Z,32.56
2023-05-01T09:54:32.885Z,37.32
2023-05-01T09:55:32.889Z,34.45
2023-05-01T09:56:32.863Z,36.68
2023-05-01T09:57:32.876Z,35.58
2023-05-01T09:58:32.844Z,33.05
2023-05-01T09:59:32.854Z,35.14
2023-05-01T10:00:32.840Z,33.67
2023-05-01T10:01:32.870Z,37.49
2023-05-01T10:02:32.976Z,36.04
2023-05-01T10:03:32.967Z,36.55
2023-05-01T10:04:32.810Z,39.97
2023-05-01T10:05:32.798Z,33.52
2023-05-01T10:06:32.859Z,33.15
2023-05-01T10:07:32.814Z,34.60
2023-05-01T10:08:32.804Z,35.82
2023-05-01T10:09:32.796Z,34.27
2023-05-01T10:10:32.833Z,32.63
2023-05-01T10:11:32.798Z,34.83
2023-05-01T10:12:32.789Z,33.59
2023-05-01T10:13:32.746Z,34.66
2023-05-01T10:14:32.759Z,35.86
2023-05-01T10:15:32.737Z,35.22
2023-05-01T10:16:32.805Z,37.93
2023-05-01T10:17:32.772Z,33.03
2023-05-01T10:18:32.703Z,37.39
2023-05-01T10:19:32.729Z,34.63
2023-05-01T10:20:32.774Z,33.28
2023-05-01T10:21:32.735Z,37.35
2023-05-01T10:22:32.717Z,35.83
2023-05-01T10:23:32.672Z,35.06
2023-05-01T10:24:32.697Z,37.23
2023-05-01T10:25:32.676Z,34.53
2023-05-01T10:26:32.710Z,33.80
2023-05-01T10:27:32.669Z,35.05
2023-05-01T10:28:32.686Z,34.70
2023-05-01T10:29:32.642Z,34.85
2023-05-01T10:30:32.649Z,36.06
2023-05-01T10:31:32.713Z,36.81
2023-05-01T10:32:32.692Z,35.74
2023-05-01T10:33:32.657Z,39.48
2023-05-01T10:34:32.610Z,36.48
2023-05-01T10:35:32.585Z,34.39
2023-05-01T10:36:32.636Z,37.72
2023-05-01T10:37:32.616Z,35.78
2023-05-01T10:38:32.615Z,33.57
2023-05-01T10:39:32.604Z,34.42
2023-05-01T10:40:32.589Z,36.44
2023-05-01T10:41:32.615Z,38.14
2023-05-01T10:42:32.565Z,36.33
2023-05-01T10:43:32.590Z,36.68
2023-05-01T10:44:32.625Z,36.34
2023-05-01T10:45:33.911Z,35.10
2023-05-01T10:46:32.940Z,37.39
2023-05-01T10:47:32.845Z,33.36
2023-05-01T10:48:32.886Z,32.03
2023-05-01T10:49:32.929Z,34.98
2023-05-01T10:50:32.910Z,35.45
2023-05-01T10:51:32.943Z,33.82
2023-05-01T10:52:32.981Z,33.33
2023-05-01T10:53:32.971Z,36.69
2023-05-01T10:54:33.027Z,34.96
2023-05-01T10:55:33.046Z,36.65
2023-05-01T10:56:33.100Z,34.95
2023-05-01T10:57:33.082Z,37.12
2023-05-01T10:58:33.169Z,38.26
2023-05-01T10:59:33.192Z,37.12
2023-05-01T11:00:33.247Z,38.62
2023-05-01T11:01:33.468Z,38.60
2023-05-01T11:02:33.414Z,36.70
2023-05-01T11:03:33.424Z,38.81
2023-05-01T11:04:33.474Z,35.13
2023-05-01T11:05:38.613Z,36.33
2023-05-01T11:06:34.690Z,36.66
2023-05-01T11:07:33.564Z,37.08
2023-05-01T11:08:33.529Z,38.52
2023-05-01T11:09:33.528Z,38.62
2023-05-01T11:10:33.518Z,40.71
2023-05-01T11:11:33.507Z,36.57
2023-05-01T11:12:33.491Z,37.67
2023-05-01T11:13:33.466Z,39.27
2023-05-01T11:14:33.481Z,40.23
2023-05-01T11:15:33.484Z,38.34
2023-05-01T11:16:33.496Z,35.91
2023-05-01T11:17:33.526Z,38.12
2023-05-01T11:18:33.467Z,37.36
2023-05-01T11:19:33.437Z,39.40
2023-05-01T11:20:33.445Z,39.99
2023-05-01T11:21:33.464Z,38.53
2023-05-01T11:22:33.474Z,38.57
2023-05-01T11:23:33.473Z,40.41
2023-05-01T11:24:33.522Z,37.56
2023-05-01T11:25:33.537Z,42.86
2023-05-01T11:26:33.547Z,34.13
2023-05-01T11:27:33.613Z,36.30
2023-05-01T11:28:33.596Z,37.58
2023-05-01T11:29:33.629Z,40.91
2023-05-01T11:30:33.660Z,35.06
2023-05-01T11:31:33.766Z,34.92
2023-05-01T11:32:33.705Z,34.55
2023-05-01T11:33:33.711Z,39.03
2023-05-01T11:34:33.734Z,38.07
2023-05-01T11:35:33.775Z,38.66
2023-05-01T11:36:33.805Z,40.70
2023-05-01T11:37:33.799Z,39.75
2023-05-01T11:38:33.849Z,38.73
2023-05-01T11:39:33.927Z,39.14
2023-05-01T11:40:33.970Z,41.40
2023-05-01T11:41:33.995Z,40.66
2023-05-01T11:42:34.102Z,42.28
2023-05-01T11:43:34.065Z,38.13
2023-05-01T11:44:34.074Z,39.48
2023-05-01T11:45:34.185Z,40.56
2023-05-01T11:46:34.167Z,40.42
2023-05-01T11:47:34.195Z,37.10
2023-05-01T11:48:34.153Z,42.37
2023-05-01T11:49:34.185Z,40.93
2023-05-01T11:50:34.199Z,39.19
2023-05-01T11:51:34.198Z,37.81
2023-05-01T11:52:34.270Z,41.81
2023-05-01T11:53:34.269Z,39.80
2023-05-01T11:54:34.303Z,43.32
2023-05-01T11:55:34.348Z,40.00
2023-05-01T11:56:34.429Z,38.66
2023-05-01T11:57:34.463Z,42.02
2023-05-01T11:58:34.542Z,40.19
2023-05-01T11:59:34.602Z,42.58
2023-05-01T12:00:34.612Z,42.66
2023-05-01T12:01:34.704Z,39.16
2023-05-01T12:02:34.797Z,41.55
2023-05-01T12:03:34.850Z,40.82
2023-05-01T12:04:34.801Z,37.49
2023-05-01T12:05:34.788Z,40.86
2023-05-01T12:06:34.841Z,39.96
2023-05-01T12:07:34.873Z,39.98
2023-05-01T12:08:34.901Z,42.30
2023-05-01T12:09:34.897Z,40.22
2023-05-01T12:10:35.683Z,41.53
2023-05-01T12:11:34.915Z,39.48
2023-05-01T12:12:34.919Z,39.74
2023-05-01T12:13:34.969Z,40.29
2023-05-01T12:14:34.998Z,38.79
2023-05-01T12:15:35.000Z,38.59
2023-05-01T12:16:35.035Z,40.67
2023-05-01T12:17:35.093Z,43.25
2023-05-01T12:18:35.151Z,43.21
2023-05-01T12:19:35.141Z,42.74
2023-05-01T12:20:35.210Z,44.49
2023-05-01T12:21:35.279Z,44.45
2023-05-01T12:22:35.319Z,41.88
2023-05-01T12:23:35.326Z,42.97
2023-05-01T12:24:35.322Z,43.11
2023-05-01T12:25:35.384Z,43.13
2023-05-01T12:26:35.441Z,42.15
2023-05-01T12:27:35.413Z,40.87
2023-05-01T12:28:35.454Z,40.77
2023-05-01T12:29:35.480Z,41.39
2023-05-01T12:30:35.512Z,38.97
2023-05-01T12:31:35.534Z,32.87
2023-05-01T12:32:35.560Z,36.78
2023-05-01T12:33:35.535Z,38.77
2023-05-01T12:34:35.575Z,40.48
2023-05-01T12:35:35.657Z,39.49
2023-05-01T12:36:35.691Z,37.90
2023-05-01T12:37:35.715Z,33.68
2023-05-01T12:38:35.785Z,37.09
2023-05-01T12:39:35.851Z,33.48
2023-05-01T12:40:35.904Z,34.43
2023-05-01T12:41:35.995Z,33.13
2023-05-01T12:42:36.025Z,35.10
2023-05-01T12:43:36.061Z,32.91
2023-05-01T12:44:36.149Z,35.03
2023-05-01T12:45:36.200Z,34.49
2023-05-01T12:46:36.326Z,39.60
2023-05-01T12:47:36.375Z,36.11
2023-05-01T12:48:36.394Z,37.53
2023-05-01T12:49:36.480Z,37.22
2023-05-01T12:50:36.507Z,38.37
2023-05-01T12:51:36.723Z,37.64
2023-05-01T12:52:36.613Z,34.52
2023-05-01T12:53:36.683Z,33.81